Time;durP1;ratioP1;P1;durP2;ratioP2;P2;SDS_P1;SDS_P2;PMS_P1;PMS_P2;Temp;Humidity;BMP_temperature;BMP_pressure;BME280_temperature;BME280_humidity;BME280_pressure;Samples;Min_cycle;Max_cycle;Signal;HPM_P1;HPM_P2
2023/10/29 00:00:40;;;;;;;3.60;2.73;;;;;;;10.93;100.00;154167.53;5010676;28;20451;-75
2023/10/29 00:03:07;;;;;;;3.20;2.50;;;;;;;10.90;100.00;154159.78;4988877;28;20539;-75
2023/10/29 00:05:33;;;;;;;3.87;2.60;;;;;;;10.88;100.00;154154.56;5001736;28;20817;-75
2023/10/29 00:08:00;;;;;;;2.87;2.63;;;;;;;10.85;100.00;154145.53;5020390;28;20513;-75
2023/10/29 00:10:28;;;;;;;3.13;2.70;;;;;;;10.82;100.00;154139.06;5022201;28;20478;-75
2023/10/29 00:12:54;;;;;;;2.60;2.30;;;;;;;10.85;100.00;154145.53;5007387;28;20452;-75
2023/10/29 00:15:21;;;;;;;4.10;2.63;;;;;;;10.82;100.00;154137.78;5000942;28;20947;-76
2023/10/29 00:17:47;;;;;;;4.50;2.10;;;;;;;10.85;100.00;154145.53;5002311;28;20467;-75
2023/10/29 00:20:14;;;;;;;2.93;2.47;;;;;;;10.81;100.00;154136.47;5022400;28;20854;-76
2023/10/29 00:22:41;;;;;;;4.70;2.43;;;;;;;10.86;100.00;154148.09;5020364;28;20586;-75
2023/10/29 00:25:08;;;;;;;4.10;2.73;;;;;;;10.83;100.00;154141.63;5022577;28;20541;-76
2023/10/29 00:27:36;;;;;;;3.37;2.90;;;;;;;10.81;100.00;154136.47;5027242;28;20453;-75
2023/10/29 00:30:03;;;;;;;3.40;2.70;;;;;;;10.77;100.00;154126.13;5003355;28;20475;-75
2023/10/29 00:32:29;;;;;;;3.87;3.00;;;;;;;10.76;100.00;154122.22;4984834;28;20458;-75
2023/10/29 00:34:56;;;;;;;3.50;3.10;;;;;;;10.75;100.00;154119.66;5020472;28;20451;-75
2023/10/29 00:37:23;;;;;;;3.60;2.77;;;;;;;10.69;100.00;154105.41;5024036;28;20441;-75
2023/10/29 00:39:49;;;;;;;5.50;3.13;;;;;;;10.72;100.00;154113.13;5009167;28;20452;-75
2023/10/29 00:42:16;;;;;;;4.53;2.67;;;;;;;10.71;100.00;154110.56;5026916;28;20444;-75
2023/10/29 00:44:43;;;;;;;3.27;2.47;;;;;;;10.69;100.00;154105.41;5002515;28;20464;-75
2023/10/29 00:47:10;;;;;;;3.57;3.00;;;;;;;10.66;100.00;154096.31;5022897;28;20439;-75
2023/10/29 00:49:37;;;;;;;3.13;2.70;;;;;;;10.65;100.00;154095.03;5023886;28;20545;-75
2023/10/29 00:52:04;;;;;;;4.20;3.17;;;;;;;10.62;100.00;154085.94;5004251;28;20457;-75
2023/10/29 00:54:31;;;;;;;3.60;2.80;;;;;;;10.63;100.00;154088.56;5022534;28;20454;-75
2023/10/29 00:56:58;;;;;;;2.93;2.37;;;;;;;10.60;100.00;154080.78;5000743;28;20893;-76
2023/10/29 00:59:26;;;;;;;2.83;2.20;;;;;;;10.60;100.00;154082.06;5017435;28;20456;-75
2023/10/29 01:01:53;;;;;;;3.17;2.30;;;;;;;10.60;100.00;154080.78;5024951;28;20517;-75
2023/10/29 01:04:21;;;;;;;3.20;2.20;;;;;;;10.59;100.00;154079.47;5022766;28;20462;-76
2023/10/29 01:06:48;;;;;;;3.80;2.27;;;;;;;10.59;100.00;154079.47;5018244;28;20514;-75
2023/10/29 01:09:15;;;;;;;2.47;2.03;;;;;;;10.61;100.00;154084.69;5021057;28;20582;-75
2023/10/29 01:11:42;;;;;;;2.10;1.80;;;;;;;10.64;100.00;154092.47;5001676;28;21038;-75
2023/10/29 01:14:09;;;;;;;2.77;1.93;;;;;;;10.63;100.00;154089.84;5001266;28;20950;-75
2023/10/29 01:16:35;;;;;;;3.97;2.10;;;;;;;10.67;100.00;154100.19;5022649;28;20554;-75
2023/10/29 01:19:03;;;;;;;3.67;2.17;;;;;;;10.68;100.00;154102.78;4983839;28;20460;-76
2023/10/29 01:21:30;;;;;;;2.57;1.90;;;;;;;10.68;100.00;154101.50;5018093;28;20454;-76
2023/10/29 01:23:57;;;;;;;2.70;2.00;;;;;;;10.70;100.00;154106.66;4994364;28;20460;-76
2023/10/29 01:26:24;;;;;;;5.80;2.00;;;;;;;10.68;100.00;154102.78;5018899;28;20455;-76
2023/10/29 01:28:50;;;;;;;2.40;1.90;;;;;;;10.68;100.00;154101.50;5024687;28;20897;-75
2023/10/29 01:31:17;;;;;;;3.20;2.00;;;;;;;10.68;100.00;154102.78;5018896;28;20514;-76
2023/10/29 01:33:43;;;;;;;4.93;2.50;;;;;;;10.64;100.00;154091.16;5004002;28;20479;-76
2023/10/29 01:36:11;;;;;;;3.10;2.07;;;;;;;10.66;100.00;154097.63;5011871;28;20439;-76
2023/10/29 01:38:38;;;;;;;3.20;1.90;;;;;;;10.70;100.00;154106.66;5010846;28;20576;-76
2023/10/29 01:41:04;;;;;;;2.30;1.70;;;;;;;10.69;100.00;154105.41;4994315;28;20895;-75
2023/10/29 01:43:31;;;;;;;6.43;2.10;;;;;;;10.71;100.00;154110.56;5011208;28;20448;-75
2023/10/29 01:45:57;;;;;;;2.90;2.00;;;;;;;10.66;100.00;154096.31;5003241;28;20451;-76
2023/10/29 01:48:25;;;;;;;3.20;2.27;;;;;;;10.65;100.00;154095.03;5022377;28;20439;-76
2023/10/29 01:50:51;;;;;;;2.30;1.63;;;;;;;10.66;100.00;154096.31;5026859;28;20526;-75
2023/10/29 01:53:19;;;;;;;2.20;1.67;;;;;;;10.66;100.00;154097.63;5021696;28;21495;-75
2023/10/29 01:55:46;;;;;;;3.67;1.70;;;;;;;10.68;100.00;154101.50;5023644;28;20463;-76
2023/10/29 01:58:12;;;;;;;3.23;1.67;;;;;;;10.69;100.00;154104.09;5012904;28;20490;-76
2023/10/29 02:00:39;;;;;;;2.23;1.63;;;;;;;10.69;100.00;154105.41;4990331;28;20456;-75
2023/10/29 02:03:06;;;;;;;2.10;1.90;;;;;;;10.71;100.00;154110.56;5003477;28;21020;-75
2023/10/29 02:05:32;;;;;;;3.60;2.40;;;;;;;10.72;100.00;154111.88;5028144;28;20453;-76
2023/10/29 02:07:59;;;;;;;2.53;1.93;;;;;;;10.75;100.00;154119.66;5008275;28;20467;-75
2023/10/29 02:10:27;;;;;;;1.60;1.27;;;;;;;10.74;100.00;154118.34;5004497;28;20503;-75
2023/10/29 02:12:54;;;;;;;2.63;1.57;;;;;;;10.76;100.00;154122.22;5025080;28;20458;-76
2023/10/29 02:15:21;;;;;;;2.10;1.60;;;;;;;10.73;100.00;154115.75;5027588;28;21511;-76
2023/10/29 02:17:47;;;;;;;2.03;1.80;;;;;;;10.85;100.00;154145.53;5004188;28;20785;-76
2023/10/29 02:20:14;;;;;;;2.10;1.80;;;;;;;10.80;100.00;154133.84;5024441;28;20452;-76
2023/10/29 02:22:42;;;;;;;2.53;2.17;;;;;;;10.78;100.00;154128.69;5023421;28;20451;-76
2023/10/29 02:25:09;;;;;;;1.90;1.50;;;;;;;10.77;100.00;154124.81;5022759;28;20482;-76
2023/10/29 02:27:35;;;;;;;2.30;1.87;;;;;;;10.82;100.00;154139.06;5013778;28;20452;-76
2023/10/29 02:30:02;;;;;;;2.40;1.60;;;;;;;10.83;100.00;154141.63;5005792;28;21008;-76
2023/10/29 02:32:28;;;;;;;2.00;1.70;;;;;;;10.81;100.00;154136.47;5019454;28;20459;-76
2023/10/29 02:34:56;;;;;;;5.43;2.13;;;;;;;10.81;100.00;154135.16;5006769;28;20456;-76
2023/10/29 02:37:23;;;;;;;1.43;1.13;;;;;;;10.72;100.00;154113.13;5023650;28;20452;-76
2023/10/29 02:39:51;;;;;;;2.90;1.77;;;;;;;10.74;100.00;154117.03;5027201;28;20459;-75
2023/10/29 02:42:17;;;;;;;1.97;1.47;;;;;;;10.71;100.00;154110.56;5002043;28;21199;-75
2023/10/29 02:44:44;;;;;;;3.00;1.30;;;;;;;10.70;100.00;154107.97;5011246;28;20507;-75
2023/10/29 02:47:11;;;;;;;2.70;1.70;;;;;;;10.61;100.00;154084.69;5010152;28;20453;-75
2023/10/29 02:49:37;;;;;;;2.10;1.80;;;;;;;10.64;100.00;154092.47;5030863;28;20451;-74
2023/10/29 02:52:04;;;;;;;2.60;1.60;;;;;;;10.63;100.00;154089.84;5024066;28;20547;-75
2023/10/29 02:54:31;;;;;;;2.07;1.43;;;;;;;10.64;100.00;154091.16;5020956;28;20452;-74
2023/10/29 02:56:58;;;;;;;1.40;1.20;;;;;;;10.66;100.00;154096.31;5026907;28;20460;-74
2023/10/29 02:59:25;;;;;;;2.20;1.40;;;;;;;10.72;100.00;154113.13;5011909;28;20455;-75
2023/10/29 03:01:51;;;;;;;2.80;1.77;;;;;;;10.71;100.00;154110.56;4988145;28;20459;-75
2023/10/29 03:04:17;;;;;;;2.40;1.27;;;;;;;10.68;100.00;154102.78;5000319;28;20834;-75
2023/10/29 03:06:44;;;;;;;2.80;1.10;;;;;;;10.73;100.00;154115.75;5023714;28;20618;-75
2023/10/29 03:09:11;;;;;;;2.57;1.40;;;;;;;10.74;100.00;154118.34;5015140;28;20869;-75
2023/10/29 03:11:37;;;;;;;2.60;1.50;;;;;;;10.73;100.00;154115.75;4984909;28;20475;-76
2023/10/29 03:14:05;;;;;;;1.53;1.20;;;;;;;10.68;100.00;154102.78;5002761;28;20464;-76
2023/10/29 03:16:32;;;;;;;3.87;1.60;;;;;;;10.68;100.00;154102.78;5024770;28;20519;-75
2023/10/29 03:18:58;;;;;;;2.03;1.40;;;;;;;10.64;100.00;154092.47;5025116;28;20467;-76
2023/10/29 03:21:26;;;;;;;2.90;1.57;;;;;;;10.65;100.00;154093.72;5027575;28;20515;-76
2023/10/29 03:23:53;;;;;;;1.83;1.30;;;;;;;10.65;100.00;154095.03;5028688;28;20455;-77
2023/10/29 03:26:19;;;;;;;1.83;1.40;;;;;;;10.66;100.00;154097.63;4998189;28;20962;-76
2023/10/29 03:28:46;;;;;;;1.90;1.20;;;;;;;10.65;100.00;154095.03;5006095;28;20475;-75
2023/10/29 03:31:15;;;;;;;2.27;1.10;;;;;;;10.66;100.00;154096.31;4988842;28;20479;-76
2023/10/29 03:33:42;;;;;;;1.77;1.20;;;;;;;10.65;100.00;154095.03;5021097;28;20450;-76
2023/10/29 03:36:09;;;;;;;3.37;1.30;;;;;;;10.64;100.00;154091.16;5026971;28;20435;-76
2023/10/29 03:38:36;;;;;;;1.67;1.10;;;;;;;10.67;100.00;154098.94;5027741;28;20443;-76
2023/10/29 03:41:02;;;;;;;1.97;1.77;;;;;;;10.63;100.00;154088.56;5026083;28;20864;-76
2023/10/29 03:43:29;;;;;;;3.00;1.33;;;;;;;10.61;100.00;154084.69;5007564;28;20770;-76
2023/10/29 03:45:55;;;;;;;2.00;1.20;;;;;;;10.62;100.00;154085.94;5007960;28;20846;-76
2023/10/29 03:48:23;;;;;;;1.60;1.10;;;;;;;10.57;100.00;154074.31;5028951;28;20536;-76
2023/10/29 03:50:50;;;;;;;2.00;1.30;;;;;;;10.52;100.00;154060.06;4991882;28;21013;-76
2023/10/29 03:53:16;;;;;;;2.00;1.53;;;;;;;10.50;100.00;154056.19;5019626;28;20817;-76
2023/10/29 03:55:43;;;;;;;2.17;1.60;;;;;;;10.49;100.00;154053.59;5010237;28;20471;-76
2023/10/29 03:58:09;;;;;;;2.67;1.20;;;;;;;10.44;100.00;154039.34;4989769;28;20487;-76
2023/10/29 04:00:36;;;;;;;2.33;1.30;;;;;;;10.39;100.00;154027.69;5017896;28;20452;-76
2023/10/29 04:03:03;;;;;;;1.93;1.30;;;;;;;10.38;100.00;154025.09;5024642;28;20455;-75
2023/10/29 04:05:30;;;;;;;1.53;1.03;;;;;;;10.34;100.00;154016.06;5000154;28;20533;-75
2023/10/29 04:07:57;;;;;;;2.70;1.70;;;;;;;10.36;100.00;154021.22;5001439;28;20474;-75
2023/10/29 04:10:24;;;;;;;2.20;1.50;;;;;;;10.42;100.00;154035.47;4989895;28;20477;-75
2023/10/29 04:12:50;;;;;;;2.90;1.17;;;;;;;10.47;100.00;154047.13;5007152;28;20455;-75
2023/10/29 04:15:17;;;;;;;1.40;1.20;;;;;;;10.47;100.00;154048.41;5019537;28;20454;-75
2023/10/29 04:17:43;;;;;;;1.70;1.30;;;;;;;10.51;100.00;154057.50;5021922;28;20471;-75
2023/10/29 04:20:10;;;;;;;1.80;1.23;;;;;;;10.52;100.00;154060.06;5028086;28;20504;-75
2023/10/29 04:22:38;;;;;;;1.60;1.27;;;;;;;10.50;100.00;154056.19;5022536;28;20464;-74
2023/10/29 04:25:05;;;;;;;2.37;1.27;;;;;;;10.55;100.00;154069.13;4999895;28;20546;-76
2023/10/29 04:27:32;;;;;;;2.27;1.57;;;;;;;10.51;100.00;154057.50;4985994;28;20456;-76
2023/10/29 04:29:58;;;;;;;1.73;1.30;;;;;;;10.49;98.10;154052.28;5024169;28;20473;-76
2023/10/29 04:32:25;;;;;;;1.67;1.13;;;;;;;10.52;97.09;154060.06;5005251;28;20483;-76
2023/10/29 04:34:52;;;;;;;2.20;1.17;;;;;;;10.55;95.90;154067.84;5005016;28;20463;-76
2023/10/29 04:37:18;;;;;;;2.17;1.40;;;;;;;10.60;96.34;154082.06;5015647;28;20522;-75
2023/10/29 04:39:49;;;;;;;1.40;1.20;;;;;;;10.61;100.00;154083.38;5009725;28;20915;-76
2023/10/29 04:42:15;;;;;;;2.03;1.20;;;;;;;10.51;100.00;154058.75;5026288;28;20518;-76
2023/10/29 04:44:42;;;;;;;1.40;1.10;;;;;;;10.47;100.00;154047.13;5008411;28;20517;-76
2023/10/29 04:47:09;;;;;;;5.13;1.10;;;;;;;10.36;100.00;154019.94;5020100;28;20568;-76
2023/10/29 04:49:36;;;;;;;1.57;1.33;;;;;;;10.38;100.00;154026.41;5004440;28;20463;-76
2023/10/29 04:52:02;;;;;;;2.10;1.27;;;;;;;10.42;100.00;154035.47;5003233;28;20602;-76
2023/10/29 04:54:29;;;;;;;2.13;1.20;;;;;;;10.39;100.00;154027.69;5003828;28;20467;-77
2023/10/29 04:56:57;;;;;;;1.73;1.30;;;;;;;10.34;100.00;154014.75;5003241;28;20452;-75
2023/10/29 04:59:24;;;;;;;3.00;1.50;;;;;;;10.27;100.00;153996.66;4980316;28;20916;-76
2023/10/29 05:01:50;;;;;;;2.17;1.23;;;;;;;10.24;100.00;153990.19;5002938;28;20456;-76
2023/10/29 05:04:17;;;;;;;2.60;1.43;;;;;;;10.27;100.00;153996.66;4981813;28;20847;-76
2023/10/29 05:06:43;;;;;;;1.33;1.00;;;;;;;10.25;100.00;153992.75;4998844;28;20534;-75
2023/10/29 05:09:11;;;;;;;2.53;1.50;;;;;;;10.22;100.00;153983.66;5006073;28;20453;-75
2023/10/29 05:11:39;;;;;;;1.43;1.00;;;;;;;10.23;100.00;153987.56;4985135;28;20574;-75
2023/10/29 05:14:07;;;;;;;1.57;1.10;;;;;;;10.24;100.00;153988.88;5006023;28;20480;-76
2023/10/29 05:16:34;;;;;;;1.67;1.40;;;;;;;10.22;100.00;153984.97;4993785;28;20502;-76
2023/10/29 05:19:02;;;;;;;2.13;1.63;;;;;;;10.20;100.00;153978.50;4987158;28;20456;-75
2023/10/29 05:21:29;;;;;;;1.87;1.13;;;;;;;10.22;100.00;153983.66;4985154;28;20961;-76
2023/10/29 05:23:55;;;;;;;1.50;1.17;;;;;;;10.21;100.00;153981.09;4971884;28;20528;-76
2023/10/29 05:26:22;;;;;;;1.60;0.90;;;;;;;10.23;100.00;153987.56;4984086;28;20448;-75
2023/10/29 05:28:49;;;;;;;2.10;1.20;;;;;;;10.23;100.00;153986.28;4988141;28;20490;-75
2023/10/29 05:31:17;;;;;;;2.63;1.50;;;;;;;10.27;100.00;153997.91;5003256;28;20689;-75
2023/10/29 05:33:44;;;;;;;1.77;0.87;;;;;;;10.29;100.00;154001.81;5002132;28;20565;-76
2023/10/29 05:36:11;;;;;;;2.17;1.40;;;;;;;10.40;100.00;154030.31;4991548;28;20453;-76
2023/10/29 05:38:37;;;;;;;1.60;1.20;;;;;;;10.48;100.00;154049.72;5005135;28;20449;-76
2023/10/29 05:41:04;;;;;;;2.07;1.37;;;;;;;10.47;100.00;154048.41;4992351;28;20452;-76
2023/10/29 05:43:30;;;;;;;1.87;1.17;;;;;;;10.45;100.00;154043.25;5000790;28;20449;-77
2023/10/29 05:45:57;;;;;;;2.10;1.27;;;;;;;10.45;100.00;154043.25;4985192;28;20971;-76
2023/10/29 05:48:25;;;;;;;1.70;1.20;;;;;;;10.38;100.00;154025.09;4995850;28;20460;-77
2023/10/29 05:50:54;;;;;;;1.60;1.20;;;;;;;10.37;100.00;154022.53;5001243;28;20828;-75
2023/10/29 05:53:20;;;;;;;1.50;1.23;;;;;;;10.38;100.00;154026.41;5005626;28;20474;-76
2023/10/29 05:55:47;;;;;;;1.60;1.10;;;;;;;10.34;100.00;154014.75;5005586;28;20448;-76
2023/10/29 05:58:13;;;;;;;2.03;1.27;;;;;;;10.34;100.00;154014.75;4995270;28;20483;-76
2023/10/29 06:00:40;;;;;;;1.60;1.10;;;;;;;10.35;100.00;154017.38;5010359;28;20951;-77
2023/10/29 06:03:06;;;;;;;1.50;1.20;;;;;;;10.33;100.00;154013.47;5009252;28;20957;-76
2023/10/29 06:05:35;;;;;;;3.20;1.23;;;;;;;10.38;100.00;154025.09;5019657;28;20447;-77
2023/10/29 06:08:04;;;;;;;1.90;1.30;;;;;;;10.40;100.00;154030.31;5016729;28;20452;-76
2023/10/29 06:10:30;;;;;;;1.97;1.73;;;;;;;10.41;100.00;154032.88;5017255;28;20443;-76
2023/10/29 06:12:59;;;;;;;2.10;1.70;;;;;;;10.40;100.00;154030.31;5017471;28;20482;-76
2023/10/29 06:15:26;;;;;;;3.40;2.00;;;;;;;10.38;100.00;154025.09;5018708;28;20490;-76
2023/10/29 06:17:57;;;;;;;2.47;1.33;;;;;;;10.38;100.00;154026.41;5016082;28;20505;-75
2023/10/29 06:20:23;;;;;;;2.17;1.40;;;;;;;10.41;100.00;154032.88;4998705;28;20453;-76
2023/10/29 06:22:51;;;;;;;3.00;1.80;;;;;;;10.40;100.00;154030.31;4998526;28;20990;-75
2023/10/29 06:25:18;;;;;;;4.33;1.50;;;;;;;10.37;100.00;154022.53;5016051;28;20460;-75
2023/10/29 06:27:45;;;;;;;2.93;1.50;;;;;;;10.39;100.00;154029.00;5018910;28;20458;-76
2023/10/29 06:30:12;;;;;;;2.30;1.37;;;;;;;10.42;100.00;154035.47;5015276;28;21291;-76
2023/10/29 06:32:38;;;;;;;1.90;1.27;;;;;;;10.44;100.00;154040.63;5013617;28;20533;-75
2023/10/29 06:35:06;;;;;;;2.17;1.20;;;;;;;10.43;100.00;154036.78;5018471;28;20951;-76
2023/10/29 06:37:33;;;;;;;1.97;1.37;;;;;;;10.46;100.00;154045.81;5019190;28;20479;-76
2023/10/29 06:40:03;;;;;;;1.40;1.27;;;;;;;10.51;100.00;154057.50;5006160;28;20459;-76
2023/10/29 06:42:29;;;;;;;2.60;1.63;;;;;;;10.49;100.00;154052.28;5003538;28;20452;-75
2023/10/29 06:44:56;;;;;;;2.30;1.20;;;;;;;10.52;100.00;154060.06;5015960;28;20455;-75
2023/10/29 06:47:22;;;;;;;2.67;1.63;;;;;;;10.52;100.00;154061.34;4998388;28;20974;-76
2023/10/29 06:49:50;;;;;;;2.30;1.87;;;;;;;10.56;100.00;154070.44;4999136;28;20464;-76
2023/10/29 06:52:17;;;;;;;2.10;1.70;;;;;;;10.55;100.00;154067.84;5015465;28;20471;-76
2023/10/29 06:54:44;;;;;;;2.50;1.50;;;;;;;10.55;100.00;154069.13;5017195;28;20451;-76
2023/10/29 06:57:12;;;;;;;2.10;1.80;;;;;;;10.56;100.00;154070.44;5014814;28;20954;-76
2023/10/29 06:59:39;;;;;;;2.03;1.17;;;;;;;10.54;100.00;154066.53;5014230;28;20970;-74
2023/10/29 07:02:05;;;;;;;3.93;1.80;;;;;;;10.56;100.00;154070.44;5017972;28;20452;-76
2023/10/29 07:04:33;;;;;;;2.23;1.33;;;;;;;10.56;100.00;154071.75;4999544;28;20449;-76
2023/10/29 07:06:59;;;;;;;1.87;0.97;;;;;;;10.57;100.00;154074.31;5015319;28;20474;-75
2023/10/29 07:09:26;;;;;;;1.60;1.20;;;;;;;10.64;100.00;154091.16;5015014;28;20444;-75
2023/10/29 07:11:55;;;;;;;1.73;1.40;;;;;;;10.71;100.00;154110.56;4999619;28;20475;-74
2023/10/29 07:14:23;;;;;;;1.80;1.30;;;;;;;10.72;100.00;154111.88;5000418;28;20458;-75
2023/10/29 07:16:49;;;;;;;1.70;1.10;;;;;;;10.77;99.59;154126.13;5014267;28;20464;-74
2023/10/29 07:19:16;;;;;;;1.97;1.03;;;;;;;10.81;98.64;154136.47;4997750;28;20444;-74
2023/10/29 07:21:43;;;;;;;1.63;1.00;;;;;;;10.86;99.19;154149.41;5018903;28;20976;-75
2023/10/29 07:24:10;;;;;;;2.87;1.30;;;;;;;10.91;99.63;154161.06;5003405;28;20455;-75
2023/10/29 07:26:37;;;;;;;4.00;1.30;;;;;;;10.92;100.00;154163.66;5019222;28;20463;-75
2023/10/29 07:29:03;;;;;;;1.70;1.20;;;;;;;10.95;100.00;154172.75;5016505;28;20834;-75
2023/10/29 07:31:31;;;;;;;1.70;1.20;;;;;;;10.98;100.00;154180.53;5017280;28;20488;-75
2023/10/29 07:33:58;;;;;;;1.33;0.90;;;;;;;10.97;100.00;154177.91;5013634;28;20455;-76
2023/10/29 07:36:24;;;;;;;2.07;1.30;;;;;;;11.00;100.00;154184.38;5016555;28;20455;-75
2023/10/29 07:38:51;;;;;;;1.70;1.40;;;;;;;11.04;100.00;154193.47;4995655;28;20862;-75
2023/10/29 07:41:20;;;;;;;1.50;1.03;;;;;;;11.04;100.00;154194.72;5020124;28;20497;-75
2023/10/29 07:43:47;;;;;;;1.77;1.00;;;;;;;11.12;100.00;154214.19;4998840;28;20458;-75
2023/10/29 07:46:14;;;;;;;1.77;1.13;;;;;;;11.18;98.70;154229.72;5001262;28;20479;-75
2023/10/29 07:48:42;;;;;;;1.97;1.40;;;;;;;11.24;97.63;154246.56;5017650;28;20509;-76
2023/10/29 07:51:09;;;;;;;1.77;1.10;;;;;;;11.32;97.18;154267.31;5007119;28;21342;-76
2023/10/29 07:53:36;;;;;;;1.77;1.30;;;;;;;11.34;100.00;154272.47;4994561;28;20467;-76
2023/10/29 07:56:09;;;;;;;1.40;1.10;;;;;;;11.30;99.94;154262.13;5015048;28;20464;-76
2023/10/29 07:58:35;;;;;;;2.03;1.13;;;;;;;11.34;99.30;154271.16;5014297;28;20528;-76
2023/10/29 08:01:02;;;;;;;2.43;1.30;;;;;;;11.37;98.71;154278.94;5015449;28;20530;-76
2023/10/29 08:03:28;;;;;;;1.70;1.30;;;;;;;11.44;99.20;154297.06;5014960;28;20934;-76
2023/10/29 08:05:56;;;;;;;1.73;1.20;;;;;;;11.43;99.06;154294.50;4995467;28;20467;-76
2023/10/29 08:08:23;;;;;;;1.70;1.33;;;;;;;11.44;98.11;154297.06;5017177;28;20452;-75
2023/10/29 08:10:49;;;;;;;1.63;1.10;;;;;;;11.46;97.81;154302.28;4995647;28;20460;-76
2023/10/29 08:13:16;;;;;;;1.73;1.30;;;;;;;11.48;96.19;154308.75;5014864;28;20479;-76
2023/10/29 08:15:42;;;;;;;1.60;1.17;;;;;;;11.56;96.42;154328.19;5014684;28;20468;-76
2023/10/29 08:18:09;;;;;;;1.60;1.40;;;;;;;11.62;97.15;154343.75;5014752;28;20452;-76
2023/10/29 08:20:35;;;;;;;1.83;1.13;;;;;;;11.65;95.78;154351.50;4997641;28;20452;-77
2023/10/29 08:23:03;;;;;;;1.93;1.43;;;;;;;11.72;96.12;154369.72;5015080;28;20447;-76
2023/10/29 08:25:30;;;;;;;2.80;1.50;;;;;;;11.74;96.27;154373.59;4996399;28;20463;-76
2023/10/29 08:27:56;;;;;;;2.90;1.70;;;;;;;11.80;97.48;154389.16;4980557;28;20483;-76
2023/10/29 08:30:23;;;;;;;4.13;1.27;;;;;;;11.84;96.13;154400.78;4999844;28;20456;-76
2023/10/29 08:32:49;;;;;;;2.73;1.40;;;;;;;11.91;94.90;154417.66;5016785;28;20475;-76
2023/10/29 08:35:16;;;;;;;1.90;1.50;;;;;;;11.96;95.28;154431.94;5015096;28;20458;-76
2023/10/29 08:37:43;;;;;;;2.10;1.50;;;;;;;12.06;94.72;154457.84;5017337;28;20472;-76
2023/10/29 08:40:12;;;;;;;2.20;1.60;;;;;;;12.13;94.07;154475.97;5001845;28;20453;-76
2023/10/29 08:42:39;;;;;;;3.20;1.90;;;;;;;12.20;95.73;154492.84;5016973;28;20459;-76
2023/10/29 08:45:06;;;;;;;2.20;1.43;;;;;;;12.23;95.01;154499.34;5002912;28;20521;-74
2023/10/29 08:47:32;;;;;;;3.80;2.40;;;;;;;12.29;95.53;154514.84;5000973;28;20474;-75
2023/10/29 08:49:59;;;;;;;4.93;1.97;;;;;;;12.30;96.69;154517.47;5015601;28;20455;-74
2023/10/29 08:52:25;;;;;;;3.57;1.73;;;;;;;12.32;97.34;154522.66;4980624;28;20513;-74
2023/10/29 08:54:52;;;;;;;3.13;1.80;;;;;;;12.30;97.36;154517.47;4995777;28;20505;-75
2023/10/29 08:57:21;;;;;;;2.40;1.60;;;;;;;12.34;95.64;154527.88;5012836;28;20479;-74
2023/10/29 08:59:48;;;;;;;2.20;1.53;;;;;;;12.39;95.76;154540.84;4998795;28;20476;-74
2023/10/29 09:02:14;;;;;;;3.27;2.00;;;;;;;12.37;96.03;154536.91;5015418;28;20510;-74
2023/10/29 09:04:41;;;;;;;4.47;3.00;;;;;;;12.40;95.40;154544.69;5012448;28;20545;-75
2023/10/29 09:07:08;;;;;;;3.00;2.60;;;;;;;12.45;96.40;154556.34;4979869;28;20575;-74
2023/10/29 09:09:35;;;;;;;5.93;4.40;;;;;;;12.50;97.52;154569.31;5001788;28;20490;-75
2023/10/29 09:12:02;;;;;;;8.73;6.50;;;;;;;12.57;97.30;154587.50;5011600;28;20606;-74
2023/10/29 09:14:30;;;;;;;7.93;5.47;;;;;;;12.66;98.41;154610.81;5010329;28;20943;-75
2023/10/29 09:16:56;;;;;;;13.30;7.67;;;;;;;12.68;99.73;154616.03;5009117;28;21007;-75
2023/10/29 09:19:23;;;;;;;13.40;9.57;;;;;;;12.72;98.88;154626.41;4999161;28;20452;-75
2023/10/29 09:21:51;;;;;;;5.83;4.70;;;;;;;12.76;98.57;154636.81;5012651;28;20446;-75
2023/10/29 09:24:17;;;;;;;3.80;2.97;;;;;;;12.78;97.92;154643.28;4993318;28;20451;-75
2023/10/29 09:26:44;;;;;;;3.80;2.30;;;;;;;12.82;97.75;154652.31;5015227;28;20463;-75
2023/10/29 09:29:10;;;;;;;2.40;1.93;;;;;;;12.86;97.25;154661.44;4995085;28;20459;-75
2023/10/29 09:31:38;;;;;;;4.10;2.57;;;;;;;12.91;95.86;154675.69;5015687;28;20790;-76
2023/10/29 09:34:05;;;;;;;2.10;1.80;;;;;;;12.95;95.59;154686.06;5012451;28;20440;-76
2023/10/29 09:36:31;;;;;;;2.30;1.90;;;;;;;13.00;95.16;154699.03;4999588;28;20811;-76
2023/10/29 09:38:58;;;;;;;3.10;1.73;;;;;;;13.06;95.23;154714.59;4995218;28;20447;-75
2023/10/29 09:41:25;;;;;;;2.27;1.50;;;;;;;13.07;94.90;154717.25;5018965;28;20456;-75
2023/10/29 09:43:53;;;;;;;2.00;1.80;;;;;;;13.11;93.71;154727.63;5015276;28;21005;-76
2023/10/29 09:46:20;;;;;;;1.77;1.63;;;;;;;13.16;94.20;154739.28;4996987;28;20464;-75
2023/10/29 09:48:49;;;;;;;2.07;1.70;;;;;;;13.16;94.76;154740.59;4998117;28;20535;-75
2023/10/29 09:51:16;;;;;;;1.60;1.20;;;;;;;13.22;94.37;154756.19;4976060;28;20979;-76
2023/10/29 09:53:42;;;;;;;2.07;1.33;;;;;;;13.32;93.28;154782.13;5014425;28;20985;-76
2023/10/29 09:56:09;;;;;;;2.53;1.50;;;;;;;13.39;93.68;154799.00;5012746;28;20451;-76
2023/10/29 09:58:36;;;;;;;3.13;1.70;;;;;;;13.51;92.46;154828.81;5015165;28;20479;-75
2023/10/29 10:01:04;;;;;;;2.47;1.47;;;;;;;13.54;92.77;154837.91;5017229;28;20934;-75
2023/10/29 10:03:31;;;;;;;2.37;1.73;;;;;;;13.54;91.95;154837.91;4999469;28;20509;-75
2023/10/29 10:06:00;;;;;;;3.90;1.60;;;;;;;13.59;91.08;154850.91;5000559;28;20973;-75
2023/10/29 10:08:27;;;;;;;2.93;1.80;;;;;;;13.67;92.30;154870.34;5018190;28;20546;-75
2023/10/29 10:10:54;;;;;;;2.93;1.53;;;;;;;13.76;91.71;154893.75;5000980;28;20456;-75
2023/10/29 10:13:35;;;;;;;2.40;1.67;;;;;;;13.79;93.04;154902.78;5001924;28;20472;-75
2023/10/29 10:16:06;;;;;;;4.67;3.00;;;;;;;13.79;93.01;154902.78;4998348;28;20464;-75
2023/10/29 10:18:47;;;;;;;2.57;2.37;;;;;;;13.80;93.09;154904.09;4999885;28;20538;-75
2023/10/29 10:21:15;;;;;;;3.03;2.20;;;;;;;13.80;92.70;154904.09;5019285;28;20574;-75
2023/10/29 10:23:47;;;;;;;3.60;2.00;;;;;;;13.77;93.05;154896.31;5002229;28;20463;-75
2023/10/29 10:26:17;;;;;;;3.87;1.93;;;;;;;13.75;93.07;154891.13;5001015;28;20453;-75
2023/10/29 10:28:53;;;;;;;5.10;3.47;;;;;;;13.74;93.03;154888.56;4997260;28;20546;-76
2023/10/29 10:31:20;;;;;;;2.37;2.17;;;;;;;13.70;91.96;154878.16;4999934;28;20452;-76
2023/10/29 10:33:46;;;;;;;3.40;1.80;;;;;;;13.77;90.64;154896.31;4996852;28;20483;-75
2023/10/29 10:36:13;;;;;;;3.77;2.50;;;;;;;13.74;92.61;154888.56;5019926;28;20518;-75
2023/10/29 10:38:51;;;;;;;2.20;1.53;;;;;;;13.67;91.23;154870.34;5017532;28;20462;-75
2023/10/29 10:41:18;;;;;;;3.03;2.00;;;;;;;13.67;90.46;154871.66;5017073;28;20826;-75
2023/10/29 10:43:44;;;;;;;2.83;1.83;;;;;;;13.69;91.42;154876.84;5019573;28;20461;-75
2023/10/29 10:46:12;;;;;;;4.93;2.57;;;;;;;13.73;91.96;154885.94;5017933;28;20562;-75
2023/10/29 10:48:41;;;;;;;4.70;2.50;;;;;;;13.75;92.03;154892.44;5016806;28;20459;-75
2023/10/29 10:51:11;;;;;;;2.87;2.57;;;;;;;13.78;92.76;154898.91;5017433;28;20484;-75
2023/10/29 10:53:39;;;;;;;3.87;2.60;;;;;;;13.77;92.88;154896.31;4998130;28;20472;-75
2023/10/29 10:56:08;;;;;;;2.37;2.17;;;;;;;13.78;91.92;154898.91;5016337;28;20448;-75
2023/10/29 10:58:36;;;;;;;2.77;2.20;;;;;;;13.79;91.13;154901.53;5016677;28;20480;-75
2023/10/29 11:01:03;;;;;;;2.57;2.00;;;;;;;13.79;89.71;154902.78;5018268;28;20459;-75
2023/10/29 11:03:31;;;;;;;3.40;2.70;;;;;;;13.79;88.22;154901.53;5016779;28;20443;-75
2023/10/29 11:05:57;;;;;;;4.20;2.20;;;;;;;13.82;87.68;154909.34;4999433;28;20605;-76
2023/10/29 11:08:24;;;;;;;2.40;2.20;;;;;;;13.81;88.18;154906.72;5016655;28;21998;-76
2023/10/29 11:10:53;;;;;;;3.50;2.63;;;;;;;13.82;88.67;154909.34;5001102;28;20546;-76
2023/10/29 11:13:21;;;;;;;3.43;2.30;;;;;;;13.85;88.19;154917.06;4998784;28;20723;-75
2023/10/29 11:15:48;;;;;;;4.00;3.13;;;;;;;13.86;89.14;154919.69;5020039;28;20462;-76
2023/10/29 11:18:15;;;;;;;3.30;2.17;;;;;;;13.86;89.35;154919.69;4999628;28;20475;-76